sensor_id;sensor_type;location;lat;lon;timestamp;temperature;humidity
55329;DHT22;41205;44.264;19.884;2023-12-04T00:01:25;13.50;2201.60
55329;DHT22;41205;44.264;19.884;2023-12-04T00:03:52;13.50;2201.60
55329;DHT22;41205;44.264;19.884;2023-12-04T00:06:18;13.50;2201.60
55329;DHT22;41205;44.264;19.884;2023-12-04T00:08:44;13.50;2201.60
55329;DHT22;41205;44.264;19.884;2023-12-04T00:11:10;13.40;2201.60
55329;DHT22;41205;44.264;19.884;2023-12-04T00:13:36;13.50;2201.60
55329;DHT22;41205;44.264;19.884;2023-12-04T00:16:02;13.50;2201.60
55329;DHT22;41205;44.264;19.884;2023-12-04T00:18:27;13.50;2201.60
55329;DHT22;41205;44.264;19.884;2023-12-04T00:20:53;13.60;2201.60
55329;DHT22;41205;44.264;19.884;2023-12-04T00:23:19;13.50;2201.60
55329;DHT22;41205;44.264;19.884;2023-12-04T00:25:45;13.40;2201.60
55329;DHT22;41205;44.264;19.884;2023-12-04T00:28:10;13.40;2201.60
55329;DHT22;41205;44.264;19.884;2023-12-04T00:30:36;13.30;2201.60
55329;DHT22;41205;44.264;19.884;2023-12-04T00:33:02;13.40;2201.60
55329;DHT22;41205;44.264;19.884;2023-12-04T00:35:28;13.50;2201.60
55329;DHT22;41205;44.264;19.884;2023-12-04T00:37:54;13.60;2201.60
55329;DHT22;41205;44.264;19.884;2023-12-04T00:40:19;13.60;2201.60
55329;DHT22;41205;44.264;19.884;2023-12-04T00:42:45;13.60;2201.60
55329;DHT22;41205;44.264;19.884;2023-12-04T00:45:11;13.60;2201.60
55329;DHT22;41205;44.264;19.884;2023-12-04T00:47:37;13.70;2201.60
55329;DHT22;41205;44.264;19.884;2023-12-04T00:50:03;38.40;2201.60
55329;DHT22;41205;44.264;19.884;2023-12-04T00:52:28;38.50;2201.60
55329;DHT22;41205;44.264;19.884;2023-12-04T00:54:54;38.50;2201.60
55329;DHT22;41205;44.264;19.884;2023-12-04T00:57:20;38.60;2201.60
55329;DHT22;41205;44.264;19.884;2023-12-04T00:59:46;38.40;2201.60
55329;DHT22;41205;44.264;19.884;2023-12-04T01:02:12;38.60;2201.60
55329;DHT22;41205;44.264;19.884;2023-12-04T01:04:40;38.70;2201.60
55329;DHT22;41205;44.264;19.884;2023-12-04T01:07:07;38.80;2201.60
55329;DHT22;41205;44.264;19.884;2023-12-04T01:09:35;38.90;2201.60
55329;DHT22;41205;44.264;19.884;2023-12-04T01:12:01;38.90;2201.60
55329;DHT22;41205;44.264;19.884;2023-12-04T01:14:27;39.00;2201.60
55329;DHT22;41205;44.264;19.884;2023-12-04T01:16:53;38.90;2201.60
55329;DHT22;41205;44.264;19.884;2023-12-04T01:19:18;38.90;2201.60
55329;DHT22;41205;44.264;19.884;2023-12-04T01:21:44;38.90;2201.60
55329;DHT22;41205;44.264;19.884;2023-12-04T01:24:10;38.80;2201.60
55329;DHT22;41205;44.264;19.884;2023-12-04T01:26:36;38.80;2201.60
55329;DHT22;41205;44.264;19.884;2023-12-04T01:29:02;38.70;2201.60
55329;DHT22;41205;44.264;19.884;2023-12-04T01:31:27;38.70;2201.60
55329;DHT22;41205;44.264;19.884;2023-12-04T01:33:53;38.60;2201.60
55329;DHT22;41205;44.264;19.884;2023-12-04T01:36:19;38.70;2201.60
55329;DHT22;41205;44.264;19.884;2023-12-04T01:38:45;38.80;2201.60
55329;DHT22;41205;44.264;19.884;2023-12-04T01:41:10;38.80;2201.60
55329;DHT22;41205;44.264;19.884;2023-12-04T01:43:36;38.80;2201.60
55329;DHT22;41205;44.264;19.884;2023-12-04T01:46:02;38.90;2201.60
55329;DHT22;41205;44.264;19.884;2023-12-04T01:48:29;38.80;2201.60
55329;DHT22;41205;44.264;19.884;2023-12-04T01:50:55;38.90;2201.60
55329;DHT22;41205;44.264;19.884;2023-12-04T01:53:23;39.00;2201.60
55329;DHT22;41205;44.264;19.884;2023-12-04T01:55:49;39.10;2201.60
55329;DHT22;41205;44.264;19.884;2023-12-04T01:58:16;39.20;2201.60
55329;DHT22;41205;44.264;19.884;2023-12-04T02:00:42;39.10;2201.60
55329;DHT22;41205;44.264;19.884;2023-12-04T02:03:08;39.10;2201.60
55329;DHT22;41205;44.264;19.884;2023-12-04T02:05:35;39.00;2201.60
55329;DHT22;41205;44.264;19.884;2023-12-04T02:08:03;39.00;2201.60
55329;DHT22;41205;44.264;19.884;2023-12-04T02:10:29;38.90;2201.60
55329;DHT22;41205;44.264;19.884;2023-12-04T02:12:55;38.80;2201.60
55329;DHT22;41205;44.264;19.884;2023-12-04T02:15:21;38.70;2201.60
55329;DHT22;41205;44.264;19.884;2023-12-04T02:17:47;38.70;2201.60
55329;DHT22;41205;44.264;19.884;2023-12-04T02:20:14;39.00;2201.60
55329;DHT22;41205;44.264;19.884;2023-12-04T02:22:40;39.20;2201.60
55329;DHT22;41205;44.264;19.884;2023-12-04T02:25:07;39.30;2201.60
55329;DHT22;41205;44.264;19.884;2023-12-04T02:30:32;39.20;2201.60
55329;DHT22;41205;44.264;19.884;2023-12-04T02:33:04;39.10;2201.60
55329;DHT22;41205;44.264;19.884;2023-12-04T02:35:32;39.10;2201.60
55329;DHT22;41205;44.264;19.884;2023-12-04T02:38:00;39.10;2201.60
55329;DHT22;41205;44.264;19.884;2023-12-04T02:40:27;39.10;2201.60
55329;DHT22;41205;44.264;19.884;2023-12-04T02:42:52;39.10;2201.60
55329;DHT22;41205;44.264;19.884;2023-12-04T02:45:19;39.00;2201.60
55329;DHT22;41205;44.264;19.884;2023-12-04T02:47:44;39.00;2201.60
55329;DHT22;41205;44.264;19.884;2023-12-04T02:50:10;39.20;2201.60
55329;DHT22;41205;44.264;19.884;2023-12-04T02:52:36;39.30;2201.60
55329;DHT22;41205;44.264;19.884;2023-12-04T02:55:01;39.30;2201.60
55329;DHT22;41205;44.264;19.884;2023-12-04T02:57:27;39.20;2201.60
55329;DHT22;41205;44.264;19.884;2023-12-04T02:59:53;39.20;2201.60
55329;DHT22;41205;44.264;19.884;2023-12-04T03:02:19;39.20;2201.60
55329;DHT22;41205;44.264;19.884;2023-12-04T03:04:45;39.30;2201.60
55329;DHT22;41205;44.264;19.884;2023-12-04T03:07:11;39.30;2201.60
55329;DHT22;41205;44.264;19.884;2023-12-04T03:09:37;39.20;2201.60
55329;DHT22;41205;44.264;19.884;2023-12-04T03:12:03;39.20;2201.60
55329;DHT22;41205;44.264;19.884;2023-12-04T03:14:29;39.10;2201.60
55329;DHT22;41205;44.264;19.884;2023-12-04T03:16:54;39.10;2201.60
55329;DHT22;41205;44.264;19.884;2023-12-04T03:19:20;39.10;2201.60
55329;DHT22;41205;44.264;19.884;2023-12-04T03:21:46;39.00;2201.60
55329;DHT22;41205;44.264;19.884;2023-12-04T03:24:12;39.10;2201.60
55329;DHT22;41205;44.264;19.884;2023-12-04T03:26:37;39.20;2201.60
55329;DHT22;41205;44.264;19.884;2023-12-04T03:29:03;39.20;2201.60
55329;DHT22;41205;44.264;19.884;2023-12-04T03:31:29;39.20;2201.60
55329;DHT22;41205;44.264;19.884;2023-12-04T03:33:56;39.10;2201.60
55329;DHT22;41205;44.264;19.884;2023-12-04T03:36:22;39.20;2201.60
55329;DHT22;41205;44.264;19.884;2023-12-04T03:38:48;39.30;2201.60
55329;DHT22;41205;44.264;19.884;2023-12-04T03:41:14;39.30;2201.60
55329;DHT22;41205;44.264;19.884;2023-12-04T03:43:40;39.20;2201.60
55329;DHT22;41205;44.264;19.884;2023-12-04T03:46:06;39.30;2201.60
55329;DHT22;41205;44.264;19.884;2023-12-04T03:48:32;39.10;2201.60
55329;DHT22;41205;44.264;19.884;2023-12-04T03:50:58;39.30;2201.60
55329;DHT22;41205;44.264;19.884;2023-12-04T03:53:25;39.30;2201.60
55329;DHT22;41205;44.264;19.884;2023-12-04T03:55:51;39.30;2201.60
55329;DHT22;41205;44.264;19.884;2023-12-04T03:58:17;39.20;2201.60
55329;DHT22;41205;44.264;19.884;2023-12-04T04:00:42;39.30;2201.60
55329;DHT22;41205;44.264;19.884;2023-12-04T04:03:09;39.30;2201.60
55329;DHT22;41205;44.264;19.884;2023-12-04T04:05:35;64.10;2201.60
55329;DHT22;41205;44.264;19.884;2023-12-04T04:08:02;64.00;2201.60
55329;DHT22;41205;44.264;19.884;2023-12-04T04:10:27;64.00;2201.60
55329;DHT22;41205;44.264;19.884;2023-12-04T04:12:53;64.00;2201.60
55329;DHT22;41205;44.264;19.884;2023-12-04T04:15:19;64.00;2201.60
55329;DHT22;41205;44.264;19.884;2023-12-04T04:17:45;64.00;2201.60
55329;DHT22;41205;44.264;19.884;2023-12-04T04:20:11;64.00;2201.60
55329;DHT22;41205;44.264;19.884;2023-12-04T04:22:38;64.00;2201.60
55329;DHT22;41205;44.264;19.884;2023-12-04T04:25:08;64.00;2201.60
55329;DHT22;41205;44.264;19.884;2023-12-04T04:27:34;64.10;2201.60
55329;DHT22;41205;44.264;19.884;2023-12-04T04:30:00;64.00;2201.60
55329;DHT22;41205;44.264;19.884;2023-12-04T04:32:26;64.10;2201.60
55329;DHT22;41205;44.264;19.884;2023-12-04T04:34:52;64.00;2201.60
55329;DHT22;41205;44.264;19.884;2023-12-04T04:37:19;64.10;2201.60
55329;DHT22;41205;44.264;19.884;2023-12-04T04:39:44;64.10;2201.60
55329;DHT22;41205;44.264;19.884;2023-12-04T04:42:10;64.10;2201.60
55329;DHT22;41205;44.264;19.884;2023-12-04T04:44:36;64.00;2201.60
55329;DHT22;41205;44.264;19.884;2023-12-04T04:47:01;64.20;2201.60
55329;DHT22;41205;44.264;19.884;2023-12-04T04:49:27;64.10;2201.60
55329;DHT22;41205;44.264;19.884;2023-12-04T04:51:53;64.10;2201.60
55329;DHT22;41205;44.264;19.884;2023-12-04T04:54:19;64.20;2201.60
55329;DHT22;41205;44.264;19.884;2023-12-04T04:56:45;64.20;2201.60
55329;DHT22;41205;44.264;19.884;2023-12-04T04:59:11;64.30;2201.60
55329;DHT22;41205;44.264;19.884;2023-12-04T05:01:36;64.30;2201.60
55329;DHT22;41205;44.264;19.884;2023-12-04T05:04:03;64.30;2201.60
55329;DHT22;41205;44.264;19.884;2023-12-04T05:06:29;64.30;2201.60
55329;DHT22;41205;44.264;19.884;2023-12-04T05:08:55;64.40;2201.60
55329;DHT22;41205;44.264;19.884;2023-12-04T05:11:21;64.40;2201.60
55329;DHT22;41205;44.264;19.884;2023-12-04T05:13:47;64.30;2201.60
55329;DHT22;41205;44.264;19.884;2023-12-04T05:16:13;64.30;2201.60
55329;DHT22;41205;44.264;19.884;2023-12-04T05:18:39;64.30;2201.60
55329;DHT22;41205;44.264;19.884;2023-12-04T05:21:09;64.20;2201.60
55329;DHT22;41205;44.264;19.884;2023-12-04T05:23:35;64.30;2201.60
55329;DHT22;41205;44.264;19.884;2023-12-04T05:26:01;64.30;2201.60
55329;DHT22;41205;44.264;19.884;2023-12-04T05:28:27;64.30;2201.60
55329;DHT22;41205;44.264;19.884;2023-12-04T05:30:53;64.30;2201.60
55329;DHT22;41205;44.264;19.884;2023-12-04T05:33:18;64.50;2201.60
55329;DHT22;41205;44.264;19.884;2023-12-04T05:35:44;64.50;2201.60
55329;DHT22;41205;44.264;19.884;2023-12-04T05:38:10;64.40;2201.60
55329;DHT22;41205;44.264;19.884;2023-12-04T05:40:36;64.40;2201.60
55329;DHT22;41205;44.264;19.884;2023-12-04T05:43:02;64.40;2201.60
55329;DHT22;41205;44.264;19.884;2023-12-04T05:45:27;64.50;2201.60
55329;DHT22;41205;44.264;19.884;2023-12-04T05:47:53;64.40;2201.60
55329;DHT22;41205;44.264;19.884;2023-12-04T05:50:19;64.40;2201.60
55329;DHT22;41205;44.264;19.884;2023-12-04T05:52:45;64.50;2201.60
55329;DHT22;41205;44.264;19.884;2023-12-04T05:55:11;64.40;2201.60
55329;DHT22;41205;44.264;19.884;2023-12-04T05:57:39;64.50;2201.60
55329;DHT22;41205;44.264;19.884;2023-12-04T06:00:06;64.50;2201.60
55329;DHT22;41205;44.264;19.884;2023-12-04T06:02:38;64.60;2201.60
55329;DHT22;41205;44.264;19.884;2023-12-04T06:05:05;64.60;2201.60
55329;DHT22;41205;44.264;19.884;2023-12-04T06:07:31;64.50;2201.60
55329;DHT22;41205;44.264;19.884;2023-12-04T06:09:57;64.70;2201.60
55329;DHT22;41205;44.264;19.884;2023-12-04T06:12:22;64.80;2201.60
55329;DHT22;41205;44.264;19.884;2023-12-04T06:14:48;64.70;2201.60
55329;DHT22;41205;44.264;19.884;2023-12-04T06:17:14;64.50;2201.60
55329;DHT22;41205;44.264;19.884;2023-12-04T06:19:40;64.40;2201.60
55329;DHT22;41205;44.264;19.884;2023-12-04T06:22:05;64.40;2201.60
55329;DHT22;41205;44.264;19.884;2023-12-04T06:24:31;64.40;2201.60
55329;DHT22;41205;44.264;19.884;2023-12-04T06:26:58;64.30;2201.60
55329;DHT22;41205;44.264;19.884;2023-12-04T06:29:24;64.30;2201.60
55329;DHT22;41205;44.264;19.884;2023-12-04T06:31:50;64.20;2201.60
55329;DHT22;41205;44.264;19.884;2023-12-04T06:34:16;64.20;2201.60
55329;DHT22;41205;44.264;19.884;2023-12-04T06:36:42;64.20;2201.60
55329;DHT22;41205;44.264;19.884;2023-12-04T06:39:10;64.20;2201.60
55329;DHT22;41205;44.264;19.884;2023-12-04T06:41:40;64.20;2201.60
55329;DHT22;41205;44.264;19.884;2023-12-04T06:44:07;64.00;2201.60
55329;DHT22;41205;44.264;19.884;2023-12-04T06:46:37;64.00;2201.60
55329;DHT22;41205;44.264;19.884;2023-12-04T06:49:04;64.00;2201.60
55329;DHT22;41205;44.264;19.884;2023-12-04T06:51:32;39.30;2201.60
55329;DHT22;41205;44.264;19.884;2023-12-04T06:53:58;39.30;2201.60
55329;DHT22;41205;44.264;19.884;2023-12-04T06:56:24;39.30;2201.60
55329;DHT22;41205;44.264;19.884;2023-12-04T06:58:49;39.30;2201.60
55329;DHT22;41205;44.264;19.884;2023-12-04T07:01:15;39.20;2201.60
55329;DHT22;41205;44.264;19.884;2023-12-04T07:03:41;39.30;2201.60
55329;DHT22;41205;44.264;19.884;2023-12-04T07:06:07;39.20;2201.60
55329;DHT22;41205;44.264;19.884;2023-12-04T07:08:33;39.20;2201.60
55329;DHT22;41205;44.264;19.884;2023-12-04T07:10:59;39.10;2201.60
55329;DHT22;41205;44.264;19.884;2023-12-04T07:13:24;39.00;2201.60
55329;DHT22;41205;44.264;19.884;2023-12-04T07:15:50;38.90;2201.60
55329;DHT22;41205;44.264;19.884;2023-12-04T07:18:16;38.80;2201.60
55329;DHT22;41205;44.264;19.884;2023-12-04T07:20:42;38.70;2201.60
55329;DHT22;41205;44.264;19.884;2023-12-04T07:23:08;38.70;2201.60
55329;DHT22;41205;44.264;19.884;2023-12-04T07:25:34;38.70;2201.60
55329;DHT22;41205;44.264;19.884;2023-12-04T07:27:59;38.60;2201.60
55329;DHT22;41205;44.264;19.884;2023-12-04T07:30:25;38.60;2201.60
55329;DHT22;41205;44.264;19.884;2023-12-04T07:32:51;38.60;2201.60
55329;DHT22;41205;44.264;19.884;2023-12-04T07:35:18;38.50;2201.60
55329;DHT22;41205;44.264;19.884;2023-12-04T07:37:44;38.40;2201.60
55329;DHT22;41205;44.264;19.884;2023-12-04T07:40:10;13.70;2201.60
55329;DHT22;41205;44.264;19.884;2023-12-04T07:42:37;13.70;2201.60
55329;DHT22;41205;44.264;19.884;2023-12-04T07:45:03;13.60;2201.60
55329;DHT22;41205;44.264;19.884;2023-12-04T07:47:29;13.60;2201.60
55329;DHT22;41205;44.264;19.884;2023-12-04T07:49:54;13.60;2201.60
55329;DHT22;41205;44.264;19.884;2023-12-04T07:52:20;13.50;2201.60
55329;DHT22;41205;44.264;19.884;2023-12-04T07:54:46;13.60;2201.60
55329;DHT22;41205;44.264;19.884;2023-12-04T07:57:12;13.60;2201.60
55329;DHT22;41205;44.264;19.884;2023-12-04T07:59:37;13.70;2201.60
55329;DHT22;41205;44.264;19.884;2023-12-04T08:02:03;13.60;2201.60
55329;DHT22;41205;44.264;19.884;2023-12-04T08:04:29;13.50;2201.60
55329;DHT22;41205;44.264;19.884;2023-12-04T08:06:55;13.40;2201.60
55329;DHT22;41205;44.264;19.884;2023-12-04T08:09:21;13.30;2201.60
55329;DHT22;41205;44.264;19.884;2023-12-04T08:11:47;12.90;2201.60
55329;DHT22;41205;44.264;19.884;2023-12-04T08:14:13;25.70;2201.60
55329;DHT22;41205;44.264;19.884;2023-12-04T08:16:39;51.90;2227.20
55329;DHT22;41205;44.264;19.884;2023-12-04T08:19:04;77.30;2227.20
55329;DHT22;41205;44.264;19.884;2023-12-04T08:21:30;128.10;2252.80
55329;DHT22;41205;44.264;19.884;2023-12-04T08:23:57;128.00;2252.80
55329;DHT22;41205;44.264;19.884;2023-12-04T08:26:24;102.60;2227.20
55329;DHT22;41205;44.264;19.884;2023-12-04T08:28:51;77.30;2227.20
55329;DHT22;41205;44.264;19.884;2023-12-04T08:31:17;52.00;2227.20
55329;DHT22;41205;44.264;19.884;2023-12-04T08:33:43;51.80;2227.20
55329;DHT22;41205;44.264;19.884;2023-12-04T08:36:10;77.50;2227.20
55329;DHT22;41205;44.264;19.884;2023-12-04T08:38:37;103.30;2227.20
55329;DHT22;41205;44.264;19.884;2023-12-04T08:41:05;153.70;2252.80
55329;DHT22;41205;44.264;19.884;2023-12-04T08:43:31;179.40;2227.20
55329;DHT22;41205;44.264;19.884;2023-12-04T08:45:57;205.60;2048.00
55329;DHT22;41205;44.264;19.884;2023-12-04T08:48:24;205.30;2048.00
55329;DHT22;41205;44.264;19.884;2023-12-04T08:50:49;205.40;2022.40
55329;DHT22;41205;44.264;19.884;2023-12-04T08:53:15;230.70;1920.00
55329;DHT22;41205;44.264;19.884;2023-12-04T08:55:41;230.50;1945.60
55329;DHT22;41205;44.264;19.884;2023-12-04T08:58:07;230.80;1920.00
55329;DHT22;41205;44.264;19.884;2023-12-04T09:00:33;231.10;1843.20
55329;DHT22;41205;44.264;19.884;2023-12-04T09:03:01;230.60;1843.20
55329;DHT22;41205;44.264;19.884;2023-12-04T09:05:27;256.20;1792.00
55329;DHT22;41205;44.264;19.884;2023-12-04T09:07:53;256.20;1817.60
55329;DHT22;41205;44.264;19.884;2023-12-04T09:10:19;256.20;1792.00
55329;DHT22;41205;44.264;19.884;2023-12-04T09:12:45;256.30;1740.80
55329;DHT22;41205;44.264;19.884;2023-12-04T09:15:11;256.80;1689.60
55329;DHT22;41205;44.264;19.884;2023-12-04T09:17:37;256.80;1689.60
55329;DHT22;41205;44.264;19.884;2023-12-04T09:20:03;307.40;1664.00
55329;DHT22;41205;44.264;19.884;2023-12-04T09:22:31;307.90;1612.80
55329;DHT22;41205;44.264;19.884;2023-12-04T09:24:57;282.20;1638.40
55329;DHT22;41205;44.264;19.884;2023-12-04T09:27:23;256.40;1689.60
55329;DHT22;41205;44.264;19.884;2023-12-04T09:29:48;230.80;1766.40
55329;DHT22;41205;44.264;19.884;2023-12-04T09:32:14;205.50;1817.60
55329;DHT22;41205;44.264;19.884;2023-12-04T09:34:40;205.30;1843.20
55329;DHT22;41205;44.264;19.884;2023-12-04T09:37:06;154.50;1996.80
55329;DHT22;41205;44.264;19.884;2023-12-04T09:39:33;128.90;2073.60
55329;DHT22;41205;44.264;19.884;2023-12-04T09:41:58;128.40;2124.80
55329;DHT22;41205;44.264;19.884;2023-12-04T09:44:26;128.10;2150.40
55329;DHT22;41205;44.264;19.884;2023-12-04T09:46:53;102.60;2201.60
55329;DHT22;41205;44.264;19.884;2023-12-04T09:49:19;102.50;2227.20
55329;DHT22;41205;44.264;19.884;2023-12-04T09:51:47;77.70;2227.20
55329;DHT22;41205;44.264;19.884;2023-12-04T09:54:13;77.50;2227.20
55329;DHT22;41205;44.264;19.884;2023-12-04T09:56:43;77.50;2227.20
55329;DHT22;41205;44.264;19.884;2023-12-04T09:59:10;77.30;2227.20
55329;DHT22;41205;44.264;19.884;2023-12-04T10:01:39;77.40;2227.20
55329;DHT22;41205;44.264;19.884;2023-12-04T10:04:06;77.60;2227.20
55329;DHT22;41205;44.264;19.884;2023-12-04T10:06:32;102.40;2227.20
55329;DHT22;41205;44.264;19.884;2023-12-04T10:08:59;102.50;2227.20
55329;DHT22;41205;44.264;19.884;2023-12-04T10:11:25;102.40;2227.20
55329;DHT22;41205;44.264;19.884;2023-12-04T10:13:53;102.40;2227.20
55329;DHT22;41205;44.264;19.884;2023-12-04T10:16:36;102.60;2227.20
55329;DHT22;41205;44.264;19.884;2023-12-04T10:19:30;102.40;2227.20
55329;DHT22;41205;44.264;19.884;2023-12-04T10:21:57;77.50;2227.20
55329;DHT22;41205;44.264;19.884;2023-12-04T10:24:36;102.40;2227.20
55329;DHT22;41205;44.264;19.884;2023-12-04T10:27:06;77.40;2227.20
55329;DHT22;41205;44.264;19.884;2023-12-04T10:29:46;77.40;2227.20
55329;DHT22;41205;44.264;19.884;2023-12-04T10:32:13;77.70;2227.20
55329;DHT22;41205;44.264;19.884;2023-12-04T10:34:41;77.50;2227.20
55329;DHT22;41205;44.264;19.884;2023-12-04T10:37:08;77.70;2227.20
55329;DHT22;41205;44.264;19.884;2023-12-04T10:39:48;77.50;2227.20
55329;DHT22;41205;44.264;19.884;2023-12-04T10:42:28;77.70;2227.20
55329;DHT22;41205;44.264;19.884;2023-12-04T10:44:58;102.40;2227.20
55329;DHT22;41205;44.264;19.884;2023-12-04T10:47:24;102.60;2227.20
55329;DHT22;41205;44.264;19.884;2023-12-04T10:49:51;77.70;2227.20
55329;DHT22;41205;44.264;19.884;2023-12-04T10:52:18;102.40;2227.20
55329;DHT22;41205;44.264;19.884;2023-12-04T10:54:50;102.40;2227.20
55329;DHT22;41205;44.264;19.884;2023-12-04T10:57:27;102.50;2227.20
55329;DHT22;41205;44.264;19.884;2023-12-04T10:59:59;102.70;2201.60
55329;DHT22;41205;44.264;19.884;2023-12-04T11:02:33;102.90;2201.60
55329;DHT22;41205;44.264;19.884;2023-12-04T11:05:05;102.70;2176.00
55329;DHT22;41205;44.264;19.884;2023-12-04T11:07:41;102.60;2201.60
55329;DHT22;41205;44.264;19.884;2023-12-04T11:10:11;102.90;2201.60
55329;DHT22;41205;44.264;19.884;2023-12-04T11:12:40;102.80;2201.60
55329;DHT22;41205;44.264;19.884;2023-12-04T11:15:12;102.90;2176.00
55329;DHT22;41205;44.264;19.884;2023-12-04T11:17:42;102.90;2176.00
55329;DHT22;41205;44.264;19.884;2023-12-04T11:20:15;102.80;2201.60
55329;DHT22;41205;44.264;19.884;2023-12-04T11:22:44;102.80;2201.60
55329;DHT22;41205;44.264;19.884;2023-12-04T11:25:12;102.80;2201.60
55329;DHT22;41205;44.264;19.884;2023-12-04T11:27:39;102.90;2201.60
55329;DHT22;41205;44.264;19.884;2023-12-04T11:30:07;103.10;2201.60
55329;DHT22;41205;44.264;19.884;2023-12-04T11:32:45;102.90;2201.60
55329;DHT22;41205;44.264;19.884;2023-12-04T11:35:15;103.10;2201.60
55329;DHT22;41205;44.264;19.884;2023-12-04T11:37:44;102.80;2201.60
55329;DHT22;41205;44.264;19.884;2023-12-04T11:40:15;102.90;2201.60
55329;DHT22;41205;44.264;19.884;2023-12-04T11:42:41;103.10;2201.60
55329;DHT22;41205;44.264;19.884;2023-12-04T11:45:08;103.00;2201.60
55329;DHT22;41205;44.264;19.884;2023-12-04T11:47:56;102.90;2201.60
55329;DHT22;41205;44.264;19.884;2023-12-04T11:50:24;102.80;2201.60
55329;DHT22;41205;44.264;19.884;2023-12-04T11:52:50;103.10;2176.00
55329;DHT22;41205;44.264;19.884;2023-12-04T11:55:25;103.00;2176.00
55329;DHT22;41205;44.264;19.884;2023-12-04T11:57:53;103.10;2176.00
55329;DHT22;41205;44.264;19.884;2023-12-04T12:00:21;103.10;2176.00
55329;DHT22;41205;44.264;19.884;2023-12-04T12:05:23;103.10;2150.40
55329;DHT22;41205;44.264;19.884;2023-12-04T12:07:51;103.10;2176.00
55329;DHT22;41205;44.264;19.884;2023-12-04T12:10:17;103.20;2150.40
55329;DHT22;41205;44.264;19.884;2023-12-04T12:12:43;103.20;2150.40
55329;DHT22;41205;44.264;19.884;2023-12-04T12:15:10;103.20;2176.00
55329;DHT22;41205;44.264;19.884;2023-12-04T12:17:37;103.20;2150.40
55329;DHT22;41205;44.264;19.884;2023-12-04T12:20:06;103.20;2176.00
55329;DHT22;41205;44.264;19.884;2023-12-04T12:22:36;103.30;2150.40
55329;DHT22;41205;44.264;19.884;2023-12-04T12:25:06;103.30;2150.40
55329;DHT22;41205;44.264;19.884;2023-12-04T12:27:32;103.20;2176.00
55329;DHT22;41205;44.264;19.884;2023-12-04T12:29:58;103.20;2176.00
55329;DHT22;41205;44.264;19.884;2023-12-04T12:32:24;128.10;2201.60
55329;DHT22;41205;44.264;19.884;2023-12-04T12:34:51;128.00;2176.00
55329;DHT22;41205;44.264;19.884;2023-12-04T12:37:17;128.00;2176.00
55329;DHT22;41205;44.264;19.884;2023-12-04T12:39:43;128.10;2176.00
55329;DHT22;41205;44.264;19.884;2023-12-04T12:42:08;128.10;2176.00
55329;DHT22;41205;44.264;19.884;2023-12-04T12:44:40;128.20;2176.00
55329;DHT22;41205;44.264;19.884;2023-12-04T12:47:07;103.30;2176.00
55329;DHT22;41205;44.264;19.884;2023-12-04T12:49:32;128.10;2201.60
55329;DHT22;41205;44.264;19.884;2023-12-04T12:52:02;128.20;2176.00
55329;DHT22;41205;44.264;19.884;2023-12-04T12:54:30;128.30;2176.00
55329;DHT22;41205;44.264;19.884;2023-12-04T12:56:59;128.20;2176.00
55329;DHT22;41205;44.264;19.884;2023-12-04T12:59:26;128.30;2176.00
55329;DHT22;41205;44.264;19.884;2023-12-04T13:01:52;128.40;2150.40
55329;DHT22;41205;44.264;19.884;2023-12-04T13:04:18;128.20;2150.40
55329;DHT22;41205;44.264;19.884;2023-12-04T13:06:44;128.30;2150.40
55329;DHT22;41205;44.264;19.884;2023-12-04T13:09:12;128.20;2176.00
55329;DHT22;41205;44.264;19.884;2023-12-04T13:11:46;128.50;2150.40
55329;DHT22;41205;44.264;19.884;2023-12-04T13:14:12;128.80;2099.20
55329;DHT22;41205;44.264;19.884;2023-12-04T13:16:39;128.50;2099.20
55329;DHT22;41205;44.264;19.884;2023-12-04T13:19:05;128.40;2124.80
55329;DHT22;41205;44.264;19.884;2023-12-04T13:21:31;128.30;2124.80
55329;DHT22;41205;44.264;19.884;2023-12-04T13:23:59;128.30;2124.80
55329;DHT22;41205;44.264;19.884;2023-12-04T13:26:24;128.40;2124.80
55329;DHT22;41205;44.264;19.884;2023-12-04T13:28:50;128.30;2124.80
55329;DHT22;41205;44.264;19.884;2023-12-04T13:31:17;128.20;2124.80
55329;DHT22;41205;44.264;19.884;2023-12-04T13:33:42;128.40;2124.80
55329;DHT22;41205;44.264;19.884;2023-12-04T13:36:11;128.20;2124.80
55329;DHT22;41205;44.264;19.884;2023-12-04T13:38:38;128.20;2124.80
55329;DHT22;41205;44.264;19.884;2023-12-04T13:41:04;128.20;2124.80
55329;DHT22;41205;44.264;19.884;2023-12-04T13:43:56;128.20;2124.80
55329;DHT22;41205;44.264;19.884;2023-12-04T13:46:25;128.10;2124.80
55329;DHT22;41205;44.264;19.884;2023-12-04T13:48:56;128.20;2124.80
55329;DHT22;41205;44.264;19.884;2023-12-04T13:51:22;128.20;2124.80
55329;DHT22;41205;44.264;19.884;2023-12-04T13:53:48;128.10;2124.80
55329;DHT22;41205;44.264;19.884;2023-12-04T13:56:16;128.00;2150.40
55329;DHT22;41205;44.264;19.884;2023-12-04T13:59:07;128.00;2124.80
55329;DHT22;41205;44.264;19.884;2023-12-04T14:01:33;103.30;2124.80
55329;DHT22;41205;44.264;19.884;2023-12-04T14:03:59;103.20;2099.20
55329;DHT22;41205;44.264;19.884;2023-12-04T14:06:31;103.20;2124.80
55329;DHT22;41205;44.264;19.884;2023-12-04T14:08:58;103.20;2099.20
55329;DHT22;41205;44.264;19.884;2023-12-04T14:11:24;103.10;2124.80
55329;DHT22;41205;44.264;19.884;2023-12-04T14:13:49;103.00;2124.80
55329;DHT22;41205;44.264;19.884;2023-12-04T14:16:15;103.00;2124.80
55329;DHT22;41205;44.264;19.884;2023-12-04T14:18:41;103.00;2124.80
55329;DHT22;41205;44.264;19.884;2023-12-04T14:21:08;103.00;2124.80
55329;DHT22;41205;44.264;19.884;2023-12-04T14:23:34;102.90;2124.80
55329;DHT22;41205;44.264;19.884;2023-12-04T14:26:00;102.90;2124.80
55329;DHT22;41205;44.264;19.884;2023-12-04T14:28:27;103.00;2124.80
55329;DHT22;41205;44.264;19.884;2023-12-04T14:30:53;102.90;2124.80
55329;DHT22;41205;44.264;19.884;2023-12-04T14:33:19;103.00;2124.80
55329;DHT22;41205;44.264;19.884;2023-12-04T14:35:45;103.00;2124.80
55329;DHT22;41205;44.264;19.884;2023-12-04T14:38:11;102.90;2124.80
55329;DHT22;41205;44.264;19.884;2023-12-04T14:40:37;102.80;2150.40
55329;DHT22;41205;44.264;19.884;2023-12-04T14:43:02;102.80;2150.40
55329;DHT22;41205;44.264;19.884;2023-12-04T14:45:28;102.80;2150.40
55329;DHT22;41205;44.264;19.884;2023-12-04T14:47:54;102.70;2150.40